sensor_id;sensor_type;location;lat;lon;timestamp;temperature;humidity
12268;DHT22;6196;48.398;11.736;2023-04-25T00:02:13;6.00;99.90
12268;DHT22;6196;48.398;11.736;2023-04-25T00:04:40;6.00;99.90
12268;DHT22;6196;48.398;11.736;2023-04-25T00:07:08;6.00;99.90
12268;DHT22;6196;48.398;11.736;2023-04-25T00:09:35;6.00;99.90
12268;DHT22;6196;48.398;11.736;2023-04-25T00:12:02;6.10;99.90
12268;DHT22;6196;48.398;11.736;2023-04-25T00:14:29;6.10;99.90
12268;DHT22;6196;48.398;11.736;2023-04-25T00:16:56;6.00;99.90
12268;DHT22;6196;48.398;11.736;2023-04-25T00:19:24;6.10;99.90
12268;DHT22;6196;48.398;11.736;2023-04-25T00:21:51;5.90;99.90
12268;DHT22;6196;48.398;11.736;2023-04-25T00:24:18;5.90;99.90
12268;DHT22;6196;48.398;11.736;2023-04-25T00:26:44;6.00;99.90
12268;DHT22;6196;48.398;11.736;2023-04-25T00:29:11;6.00;99.90
12268;DHT22;6196;48.398;11.736;2023-04-25T00:31:38;6.00;99.90
12268;DHT22;6196;48.398;11.736;2023-04-25T00:34:08;6.10;99.90
12268;DHT22;6196;48.398;11.736;2023-04-25T00:36:35;6.10;99.90
12268;DHT22;6196;48.398;11.736;2023-04-25T00:39:02;6.10;99.90
12268;DHT22;6196;48.398;11.736;2023-04-25T00:41:31;6.10;99.90
12268;DHT22;6196;48.398;11.736;2023-04-25T00:43:58;6.10;99.90
12268;DHT22;6196;48.398;11.736;2023-04-25T00:46:25;6.10;99.90
12268;DHT22;6196;48.398;11.736;2023-04-25T00:48:52;6.10;99.90
12268;DHT22;6196;48.398;11.736;2023-04-25T00:51:21;6.20;99.90
12268;DHT22;6196;48.398;11.736;2023-04-25T00:53:49;6.20;99.90
12268;DHT22;6196;48.398;11.736;2023-04-25T00:56:17;6.20;99.90
12268;DHT22;6196;48.398;11.736;2023-04-25T00:58:44;6.30;99.90
12268;DHT22;6196;48.398;11.736;2023-04-25T01:01:12;6.30;99.90
12268;DHT22;6196;48.398;11.736;2023-04-25T01:03:39;6.30;99.90
12268;DHT22;6196;48.398;11.736;2023-04-25T01:06:09;6.30;99.90
12268;DHT22;6196;48.398;11.736;2023-04-25T01:08:40;6.30;99.90
12268;DHT22;6196;48.398;11.736;2023-04-25T01:11:07;6.30;99.90
12268;DHT22;6196;48.398;11.736;2023-04-25T01:13:34;6.40;99.90
12268;DHT22;6196;48.398;11.736;2023-04-25T01:16:02;6.40;99.90
12268;DHT22;6196;48.398;11.736;2023-04-25T01:18:29;6.50;99.90
12268;DHT22;6196;48.398;11.736;2023-04-25T01:21:08;6.50;99.90
12268;DHT22;6196;48.398;11.736;2023-04-25T01:23:41;6.50;99.90
12268;DHT22;6196;48.398;11.736;2023-04-25T01:26:10;6.60;99.90
12268;DHT22;6196;48.398;11.736;2023-04-25T01:28:38;6.40;99.90
12268;DHT22;6196;48.398;11.736;2023-04-25T01:31:09;6.40;99.90
12268;DHT22;6196;48.398;11.736;2023-04-25T01:33:36;6.40;99.90
12268;DHT22;6196;48.398;11.736;2023-04-25T01:36:04;6.40;99.90
12268;DHT22;6196;48.398;11.736;2023-04-25T01:38:31;6.40;99.90
12268;DHT22;6196;48.398;11.736;2023-04-25T01:40:59;6.30;99.90
12268;DHT22;6196;48.398;11.736;2023-04-25T01:43:26;6.30;99.90
12268;DHT22;6196;48.398;11.736;2023-04-25T01:45:53;6.30;99.90
12268;DHT22;6196;48.398;11.736;2023-04-25T01:48:20;6.30;99.90
12268;DHT22;6196;48.398;11.736;2023-04-25T01:50:47;6.20;99.90
12268;DHT22;6196;48.398;11.736;2023-04-25T01:53:14;6.20;99.90
12268;DHT22;6196;48.398;11.736;2023-04-25T01:55:41;6.10;99.90
12268;DHT22;6196;48.398;11.736;2023-04-25T01:58:08;6.00;99.90
12268;DHT22;6196;48.398;11.736;2023-04-25T02:00:36;6.00;99.90
12268;DHT22;6196;48.398;11.736;2023-04-25T02:03:05;5.90;99.90
12268;DHT22;6196;48.398;11.736;2023-04-25T02:05:39;5.90;99.90
12268;DHT22;6196;48.398;11.736;2023-04-25T02:08:07;5.80;99.90
12268;DHT22;6196;48.398;11.736;2023-04-25T02:10:35;5.80;99.90
12268;DHT22;6196;48.398;11.736;2023-04-25T02:13:02;5.70;99.90
12268;DHT22;6196;48.398;11.736;2023-04-25T02:15:31;5.70;99.90
12268;DHT22;6196;48.398;11.736;2023-04-25T02:17:58;5.60;99.90
12268;DHT22;6196;48.398;11.736;2023-04-25T02:20:29;5.50;99.90
12268;DHT22;6196;48.398;11.736;2023-04-25T02:22:56;5.50;99.90
12268;DHT22;6196;48.398;11.736;2023-04-25T02:25:23;5.50;99.90
12268;DHT22;6196;48.398;11.736;2023-04-25T02:27:50;5.40;99.90
12268;DHT22;6196;48.398;11.736;2023-04-25T02:30:17;5.50;99.90
12268;DHT22;6196;48.398;11.736;2023-04-25T02:32:44;5.50;99.90
12268;DHT22;6196;48.398;11.736;2023-04-25T02:35:11;5.50;99.90
12268;DHT22;6196;48.398;11.736;2023-04-25T02:37:39;5.50;99.90
12268;DHT22;6196;48.398;11.736;2023-04-25T02:40:07;5.50;99.90
12268;DHT22;6196;48.398;11.736;2023-04-25T02:42:35;5.40;99.90
12268;DHT22;6196;48.398;11.736;2023-04-25T02:45:02;5.40;99.90
12268;DHT22;6196;48.398;11.736;2023-04-25T02:47:29;5.40;99.90
12268;DHT22;6196;48.398;11.736;2023-04-25T02:49:57;5.50;99.90
12268;DHT22;6196;48.398;11.736;2023-04-25T02:52:24;5.50;99.90
12268;DHT22;6196;48.398;11.736;2023-04-25T02:54:51;5.50;99.90
12268;DHT22;6196;48.398;11.736;2023-04-25T02:57:18;5.40;99.90
12268;DHT22;6196;48.398;11.736;2023-04-25T02:59:45;5.40;99.90
12268;DHT22;6196;48.398;11.736;2023-04-25T03:02:11;5.40;99.90
12268;DHT22;6196;48.398;11.736;2023-04-25T03:04:38;5.40;99.90
12268;DHT22;6196;48.398;11.736;2023-04-25T03:07:06;5.50;99.90
12268;DHT22;6196;48.398;11.736;2023-04-25T03:09:33;5.60;99.90
12268;DHT22;6196;48.398;11.736;2023-04-25T03:12:00;5.60;99.90
12268;DHT22;6196;48.398;11.736;2023-04-25T03:14:28;5.70;99.90
12268;DHT22;6196;48.398;11.736;2023-04-25T03:16:56;5.80;99.90
12268;DHT22;6196;48.398;11.736;2023-04-25T03:19:23;5.90;99.90
12268;DHT22;6196;48.398;11.736;2023-04-25T03:21:50;5.90;99.90
12268;DHT22;6196;48.398;11.736;2023-04-25T03:24:16;6.00;99.90
12268;DHT22;6196;48.398;11.736;2023-04-25T03:26:43;6.00;99.90
12268;DHT22;6196;48.398;11.736;2023-04-25T03:29:10;6.00;99.90
12268;DHT22;6196;48.398;11.736;2023-04-25T03:31:38;6.00;99.90
12268;DHT22;6196;48.398;11.736;2023-04-25T03:34:04;6.00;99.90
12268;DHT22;6196;48.398;11.736;2023-04-25T03:36:31;6.00;99.90
12268;DHT22;6196;48.398;11.736;2023-04-25T03:38:59;5.90;99.90
12268;DHT22;6196;48.398;11.736;2023-04-25T03:41:26;5.90;99.90
12268;DHT22;6196;48.398;11.736;2023-04-25T03:43:53;6.00;99.90
12268;DHT22;6196;48.398;11.736;2023-04-25T03:46:20;6.10;99.90
12268;DHT22;6196;48.398;11.736;2023-04-25T03:48:46;6.20;99.90
12268;DHT22;6196;48.398;11.736;2023-04-25T03:51:13;6.40;99.90
12268;DHT22;6196;48.398;11.736;2023-04-25T03:53:40;6.30;99.90
12268;DHT22;6196;48.398;11.736;2023-04-25T03:56:07;6.30;99.90
12268;DHT22;6196;48.398;11.736;2023-04-25T03:58:34;6.30;99.90
12268;DHT22;6196;48.398;11.736;2023-04-25T04:01:01;6.30;99.90
12268;DHT22;6196;48.398;11.736;2023-04-25T04:03:36;6.30;99.90
12268;DHT22;6196;48.398;11.736;2023-04-25T04:06:05;6.30;99.90
12268;DHT22;6196;48.398;11.736;2023-04-25T04:08:33;6.30;99.90
12268;DHT22;6196;48.398;11.736;2023-04-25T04:11:00;6.30;99.90
12268;DHT22;6196;48.398;11.736;2023-04-25T04:13:27;6.30;99.90
12268;DHT22;6196;48.398;11.736;2023-04-25T04:15:55;6.30;99.90
12268;DHT22;6196;48.398;11.736;2023-04-25T04:18:22;6.20;99.90
12268;DHT22;6196;48.398;11.736;2023-04-25T04:20:49;6.20;99.90
12268;DHT22;6196;48.398;11.736;2023-04-25T04:23:16;6.30;99.90
12268;DHT22;6196;48.398;11.736;2023-04-25T04:25:43;6.30;99.90
12268;DHT22;6196;48.398;11.736;2023-04-25T04:28:10;6.40;99.90
12268;DHT22;6196;48.398;11.736;2023-04-25T04:30:39;6.50;99.90
12268;DHT22;6196;48.398;11.736;2023-04-25T04:33:08;6.60;99.90
12268;DHT22;6196;48.398;11.736;2023-04-25T04:35:35;6.60;99.90
12268;DHT22;6196;48.398;11.736;2023-04-25T04:38:02;6.60;99.90
12268;DHT22;6196;48.398;11.736;2023-04-25T04:40:29;6.70;99.90
12268;DHT22;6196;48.398;11.736;2023-04-25T04:42:57;6.70;99.90
12268;DHT22;6196;48.398;11.736;2023-04-25T04:45:24;6.80;99.90
12268;DHT22;6196;48.398;11.736;2023-04-25T04:47:51;6.70;99.90
12268;DHT22;6196;48.398;11.736;2023-04-25T04:50:18;6.70;99.90
12268;DHT22;6196;48.398;11.736;2023-04-25T04:52:45;6.80;99.90
12268;DHT22;6196;48.398;11.736;2023-04-25T04:55:12;6.80;99.90
12268;DHT22;6196;48.398;11.736;2023-04-25T04:57:39;6.80;99.90
12268;DHT22;6196;48.398;11.736;2023-04-25T05:00:06;6.90;99.90
12268;DHT22;6196;48.398;11.736;2023-04-25T05:02:38;7.00;99.90
12268;DHT22;6196;48.398;11.736;2023-04-25T05:05:06;7.10;99.90
12268;DHT22;6196;48.398;11.736;2023-04-25T05:07:33;7.10;99.90
12268;DHT22;6196;48.398;11.736;2023-04-25T05:10:01;7.20;99.90
12268;DHT22;6196;48.398;11.736;2023-04-25T05:12:27;7.20;99.90
12268;DHT22;6196;48.398;11.736;2023-04-25T05:14:54;7.40;99.90
12268;DHT22;6196;48.398;11.736;2023-04-25T05:17:21;7.50;99.90
12268;DHT22;6196;48.398;11.736;2023-04-25T05:19:48;7.50;99.90
12268;DHT22;6196;48.398;11.736;2023-04-25T05:22:15;7.60;99.90
12268;DHT22;6196;48.398;11.736;2023-04-25T05:24:42;7.70;99.90
12268;DHT22;6196;48.398;11.736;2023-04-25T05:27:09;7.60;99.90
12268;DHT22;6196;48.398;11.736;2023-04-25T05:29:36;7.60;99.90
12268;DHT22;6196;48.398;11.736;2023-04-25T05:32:04;7.80;99.90
12268;DHT22;6196;48.398;11.736;2023-04-25T05:34:31;7.80;99.90
12268;DHT22;6196;48.398;11.736;2023-04-25T05:36:58;7.80;99.90
12268;DHT22;6196;48.398;11.736;2023-04-25T05:39:25;7.80;99.90
12268;DHT22;6196;48.398;11.736;2023-04-25T05:41:52;7.80;99.90
12268;DHT22;6196;48.398;11.736;2023-04-25T05:44:19;7.80;99.90
12268;DHT22;6196;48.398;11.736;2023-04-25T05:46:46;7.80;99.90
12268;DHT22;6196;48.398;11.736;2023-04-25T05:49:13;7.80;99.90
12268;DHT22;6196;48.398;11.736;2023-04-25T05:51:43;8.00;99.90
12268;DHT22;6196;48.398;11.736;2023-04-25T05:54:10;8.10;99.90
12268;DHT22;6196;48.398;11.736;2023-04-25T05:56:37;8.10;99.90
12268;DHT22;6196;48.398;11.736;2023-04-25T05:59:04;8.10;99.90
12268;DHT22;6196;48.398;11.736;2023-04-25T06:01:31;8.10;99.90
12268;DHT22;6196;48.398;11.736;2023-04-25T06:03:58;8.10;99.90
12268;DHT22;6196;48.398;11.736;2023-04-25T06:06:25;8.10;99.90
12268;DHT22;6196;48.398;11.736;2023-04-25T06:08:53;8.30;99.90
12268;DHT22;6196;48.398;11.736;2023-04-25T06:11:21;8.30;99.90
12268;DHT22;6196;48.398;11.736;2023-04-25T06:13:47;8.50;99.90
12268;DHT22;6196;48.398;11.736;2023-04-25T06:16:15;8.30;99.90
12268;DHT22;6196;48.398;11.736;2023-04-25T06:18:42;8.30;99.90
12268;DHT22;6196;48.398;11.736;2023-04-25T06:21:09;8.50;99.90
12268;DHT22;6196;48.398;11.736;2023-04-25T06:23:35;8.60;99.90
12268;DHT22;6196;48.398;11.736;2023-04-25T06:26:02;8.70;99.90
12268;DHT22;6196;48.398;11.736;2023-04-25T06:28:29;8.70;99.90
12268;DHT22;6196;48.398;11.736;2023-04-25T06:30:56;8.90;99.90
12268;DHT22;6196;48.398;11.736;2023-04-25T06:33:23;8.90;99.90
12268;DHT22;6196;48.398;11.736;2023-04-25T06:35:50;9.00;99.90
12268;DHT22;6196;48.398;11.736;2023-04-25T06:38:17;9.00;99.90
12268;DHT22;6196;48.398;11.736;2023-04-25T06:40:44;8.90;99.90
12268;DHT22;6196;48.398;11.736;2023-04-25T06:43:11;8.60;99.90
12268;DHT22;6196;48.398;11.736;2023-04-25T06:45:38;8.50;99.90
12268;DHT22;6196;48.398;11.736;2023-04-25T06:48:05;8.40;99.90
12268;DHT22;6196;48.398;11.736;2023-04-25T06:50:33;8.00;99.90
12268;DHT22;6196;48.398;11.736;2023-04-25T06:53:00;7.90;99.90
12268;DHT22;6196;48.398;11.736;2023-04-25T06:55:28;7.90;99.90
12268;DHT22;6196;48.398;11.736;2023-04-25T06:57:54;7.80;99.90
12268;DHT22;6196;48.398;11.736;2023-04-25T07:00:21;7.60;99.90
12268;DHT22;6196;48.398;11.736;2023-04-25T07:02:48;7.60;99.90
12268;DHT22;6196;48.398;11.736;2023-04-25T07:05:15;7.60;99.90
12268;DHT22;6196;48.398;11.736;2023-04-25T07:07:44;7.40;99.90
12268;DHT22;6196;48.398;11.736;2023-04-25T07:10:11;7.50;99.90
12268;DHT22;6196;48.398;11.736;2023-04-25T07:12:38;7.70;99.90
12268;DHT22;6196;48.398;11.736;2023-04-25T07:15:05;7.90;99.90
12268;DHT22;6196;48.398;11.736;2023-04-25T07:17:34;8.10;99.90
12268;DHT22;6196;48.398;11.736;2023-04-25T07:20:01;8.40;99.90
12268;DHT22;6196;48.398;11.736;2023-04-25T07:22:28;8.80;99.90
12268;DHT22;6196;48.398;11.736;2023-04-25T07:24:55;9.20;99.90
12268;DHT22;6196;48.398;11.736;2023-04-25T07:27:22;9.40;99.90
12268;DHT22;6196;48.398;11.736;2023-04-25T07:29:49;9.60;99.90
12268;DHT22;6196;48.398;11.736;2023-04-25T07:32:16;9.50;99.90
12268;DHT22;6196;48.398;11.736;2023-04-25T07:34:43;9.50;99.90
12268;DHT22;6196;48.398;11.736;2023-04-25T07:37:09;9.20;99.90
12268;DHT22;6196;48.398;11.736;2023-04-25T07:39:37;9.10;99.90
12268;DHT22;6196;48.398;11.736;2023-04-25T07:42:04;9.10;99.90
12268;DHT22;6196;48.398;11.736;2023-04-25T07:44:32;9.30;99.90
12268;DHT22;6196;48.398;11.736;2023-04-25T07:47:06;9.70;99.90
12268;DHT22;6196;48.398;11.736;2023-04-25T07:49:36;9.90;99.90
12268;DHT22;6196;48.398;11.736;2023-04-25T07:52:05;10.30;99.90
12268;DHT22;6196;48.398;11.736;2023-04-25T07:54:35;10.70;99.90
12268;DHT22;6196;48.398;11.736;2023-04-25T07:57:02;11.10;99.90
12268;DHT22;6196;48.398;11.736;2023-04-25T07:59:29;11.50;99.90
12268;DHT22;6196;48.398;11.736;2023-04-25T08:01:56;12.20;99.90
12268;DHT22;6196;48.398;11.736;2023-04-25T08:04:24;12.10;99.90
12268;DHT22;6196;48.398;11.736;2023-04-25T08:06:52;12.60;99.90
12268;DHT22;6196;48.398;11.736;2023-04-25T08:09:20;12.80;99.90
12268;DHT22;6196;48.398;11.736;2023-04-25T08:11:47;12.90;99.90
12268;DHT22;6196;48.398;11.736;2023-04-25T08:14:14;12.50;99.90
12268;DHT22;6196;48.398;11.736;2023-04-25T08:16:41;12.70;99.90
12268;DHT22;6196;48.398;11.736;2023-04-25T08:19:09;12.90;99.90
12268;DHT22;6196;48.398;11.736;2023-04-25T08:21:37;12.90;99.90
12268;DHT22;6196;48.398;11.736;2023-04-25T08:24:04;12.50;99.90
12268;DHT22;6196;48.398;11.736;2023-04-25T08:26:31;12.40;99.90
12268;DHT22;6196;48.398;11.736;2023-04-25T08:28:58;13.20;99.90
12268;DHT22;6196;48.398;11.736;2023-04-25T08:31:25;13.30;99.90
12268;DHT22;6196;48.398;11.736;2023-04-25T08:33:52;13.10;99.90
12268;DHT22;6196;48.398;11.736;2023-04-25T08:36:19;12.60;99.90
12268;DHT22;6196;48.398;11.736;2023-04-25T08:39:04;13.00;99.90
12268;DHT22;6196;48.398;11.736;2023-04-25T08:41:31;13.40;99.90
12268;DHT22;6196;48.398;11.736;2023-04-25T08:43:59;13.50;99.90
12268;DHT22;6196;48.398;11.736;2023-04-25T08:46:28;14.10;99.90
12268;DHT22;6196;48.398;11.736;2023-04-25T08:49:00;13.70;99.90
12268;DHT22;6196;48.398;11.736;2023-04-25T08:51:31;13.30;99.90
12268;DHT22;6196;48.398;11.736;2023-04-25T08:54:10;12.40;99.90
12268;DHT22;6196;48.398;11.736;2023-04-25T08:56:44;11.80;99.90
12268;DHT22;6196;48.398;11.736;2023-04-25T08:59:12;11.50;99.90
12268;DHT22;6196;48.398;11.736;2023-04-25T09:01:39;11.00;99.90
12268;DHT22;6196;48.398;11.736;2023-04-25T09:04:06;10.70;99.90
12268;DHT22;6196;48.398;11.736;2023-04-25T09:06:33;10.10;99.90
12268;DHT22;6196;48.398;11.736;2023-04-25T09:09:06;10.10;99.90
12268;DHT22;6196;48.398;11.736;2023-04-25T09:11:35;10.10;99.90
12268;DHT22;6196;48.398;11.736;2023-04-25T09:14:20;10.20;99.90
12268;DHT22;6196;48.398;11.736;2023-04-25T09:19:28;10.30;99.90
12268;DHT22;6196;48.398;11.736;2023-04-25T09:22:08;10.30;99.90
12268;DHT22;6196;48.398;11.736;2023-04-25T09:24:40;10.50;99.90
12268;DHT22;6196;48.398;11.736;2023-04-25T09:27:18;10.90;99.90
12268;DHT22;6196;48.398;11.736;2023-04-25T09:29:46;12.20;99.90
12268;DHT22;6196;48.398;11.736;2023-04-25T09:37:29;13.70;99.90
12268;DHT22;6196;48.398;11.736;2023-04-25T09:39:58;14.00;99.90
12268;DHT22;6196;48.398;11.736;2023-04-25T09:42:29;13.90;99.90
12268;DHT22;6196;48.398;11.736;2023-04-25T09:44:58;13.60;99.90
12268;DHT22;6196;48.398;11.736;2023-04-25T09:47:28;13.40;99.90
12268;DHT22;6196;48.398;11.736;2023-04-25T09:49:55;13.40;99.90
12268;DHT22;6196;48.398;11.736;2023-04-25T09:52:24;13.70;99.90
12268;DHT22;6196;48.398;11.736;2023-04-25T09:54:52;13.60;99.90
12268;DHT22;6196;48.398;11.736;2023-04-25T09:57:24;14.00;99.90
12268;DHT22;6196;48.398;11.736;2023-04-25T09:59:52;14.60;99.90
12268;DHT22;6196;48.398;11.736;2023-04-25T10:02:25;14.80;99.90
12268;DHT22;6196;48.398;11.736;2023-04-25T10:04:54;15.60;99.90
12268;DHT22;6196;48.398;11.736;2023-04-25T10:07:24;15.80;99.90
12268;DHT22;6196;48.398;11.736;2023-04-25T10:10:02;16.00;99.90
12268;DHT22;6196;48.398;11.736;2023-04-25T10:12:32;15.90;99.90
12268;DHT22;6196;48.398;11.736;2023-04-25T10:15:00;15.60;99.90
12268;DHT22;6196;48.398;11.736;2023-04-25T10:17:27;14.80;99.90
12268;DHT22;6196;48.398;11.736;2023-04-25T10:19:55;14.10;99.90
12268;DHT22;6196;48.398;11.736;2023-04-25T10:22:36;13.80;99.90
12268;DHT22;6196;48.398;11.736;2023-04-25T10:25:04;13.60;99.90
12268;DHT22;6196;48.398;11.736;2023-04-25T10:27:31;13.90;99.90
12268;DHT22;6196;48.398;11.736;2023-04-25T10:30:15;14.50;99.90
12268;DHT22;6196;48.398;11.736;2023-04-25T10:32:43;15.00;99.90
12268;DHT22;6196;48.398;11.736;2023-04-25T10:35:28;15.40;99.90
12268;DHT22;6196;48.398;11.736;2023-04-25T10:38:11;15.50;99.90
12268;DHT22;6196;48.398;11.736;2023-04-25T10:40:39;14.90;99.90
12268;DHT22;6196;48.398;11.736;2023-04-25T10:46:02;14.30;99.90
12268;DHT22;6196;48.398;11.736;2023-04-25T10:48:50;13.70;99.90
12268;DHT22;6196;48.398;11.736;2023-04-25T10:51:20;13.10;99.90
12268;DHT22;6196;48.398;11.736;2023-04-25T10:54:03;12.80;99.90
12268;DHT22;6196;48.398;11.736;2023-04-25T10:56:37;12.50;99.90
12268;DHT22;6196;48.398;11.736;2023-04-25T10:59:15;12.10;99.90
12268;DHT22;6196;48.398;11.736;2023-04-25T11:01:53;11.80;99.90
12268;DHT22;6196;48.398;11.736;2023-04-25T11:04:28;11.60;99.90
12268;DHT22;6196;48.398;11.736;2023-04-25T11:09:39;11.50;99.90
12268;DHT22;6196;48.398;11.736;2023-04-25T11:12:10;11.40;99.90
12268;DHT22;6196;48.398;11.736;2023-04-25T11:14:39;11.10;99.90
12268;DHT22;6196;48.398;11.736;2023-04-25T11:17:10;11.00;99.90
12268;DHT22;6196;48.398;11.736;2023-04-25T11:19:38;10.90;99.90
12268;DHT22;6196;48.398;11.736;2023-04-25T11:22:04;10.70;99.90
12268;DHT22;6196;48.398;11.736;2023-04-25T11:24:34;10.70;99.90
12268;DHT22;6196;48.398;11.736;2023-04-25T11:27:02;10.90;99.90
12268;DHT22;6196;48.398;11.736;2023-04-25T11:29:31;11.20;99.90
12268;DHT22;6196;48.398;11.736;2023-04-25T11:31:59;11.40;99.90
12268;DHT22;6196;48.398;11.736;2023-04-25T11:34:28;11.70;99.90
12268;DHT22;6196;48.398;11.736;2023-04-25T11:37:00;12.00;99.90
12268;DHT22;6196;48.398;11.736;2023-04-25T11:39:28;12.00;99.90
12268;DHT22;6196;48.398;11.736;2023-04-25T11:41:55;12.20;99.90
12268;DHT22;6196;48.398;11.736;2023-04-25T11:44:22;12.10;99.90
12268;DHT22;6196;48.398;11.736;2023-04-25T11:46:49;12.20;99.90
12268;DHT22;6196;48.398;11.736;2023-04-25T11:49:16;12.00;99.90
12268;DHT22;6196;48.398;11.736;2023-04-25T11:51:47;11.40;99.90
12268;DHT22;6196;48.398;11.736;2023-04-25T11:54:15;11.20;99.90
12268;DHT22;6196;48.398;11.736;2023-04-25T11:56:45;10.80;99.90
12268;DHT22;6196;48.398;11.736;2023-04-25T11:59:13;10.50;99.90
12268;DHT22;6196;48.398;11.736;2023-04-25T12:04:20;9.90;99.90
12268;DHT22;6196;48.398;11.736;2023-04-25T12:06:53;9.10;99.90
12268;DHT22;6196;48.398;11.736;2023-04-25T12:09:28;8.70;99.90
12268;DHT22;6196;48.398;11.736;2023-04-25T12:11:58;8.70;99.90
12268;DHT22;6196;48.398;11.736;2023-04-25T12:14:34;8.60;99.90
12268;DHT22;6196;48.398;11.736;2023-04-25T12:17:03;8.40;99.90
12268;DHT22;6196;48.398;11.736;2023-04-25T12:19:35;8.50;99.90
12268;DHT22;6196;48.398;11.736;2023-04-25T12:22:10;8.70;99.90
12268;DHT22;6196;48.398;11.736;2023-04-25T12:24:46;8.80;99.90
12268;DHT22;6196;48.398;11.736;2023-04-25T12:27:15;8.90;99.90
12268;DHT22;6196;48.398;11.736;2023-04-25T12:29:52;9.10;99.90
12268;DHT22;6196;48.398;11.736;2023-04-25T12:32:22;9.10;99.90
12268;DHT22;6196;48.398;11.736;2023-04-25T12:34:49;9.00;99.90
12268;DHT22;6196;48.398;11.736;2023-04-25T12:37:17;9.10;99.90
12268;DHT22;6196;48.398;11.736;2023-04-25T12:39:43;9.30;99.90
12268;DHT22;6196;48.398;11.736;2023-04-25T12:42:10;9.30;99.90
12268;DHT22;6196;48.398;11.736;2023-04-25T12:44:40;9.30;99.90
12268;DHT22;6196;48.398;11.736;2023-04-25T12:47:07;9.30;99.90
12268;DHT22;6196;48.398;11.736;2023-04-25T12:49:34;9.30;99.90
12268;DHT22;6196;48.398;11.736;2023-04-25T12:52:01;9.30;99.90
12268;DHT22;6196;48.398;11.736;2023-04-25T12:54:28;9.10;99.90
12268;DHT22;6196;48.398;11.736;2023-04-25T12:56:55;9.30;99.90
12268;DHT22;6196;48.398;11.736;2023-04-25T12:59:22;9.40;99.90
12268;DHT22;6196;48.398;11.736;2023-04-25T13:01:49;9.30;99.90
12268;DHT22;6196;48.398;11.736;2023-04-25T13:04:16;9.30;99.90
12268;DHT22;6196;48.398;11.736;2023-04-25T13:06:44;9.40;99.90
12268;DHT22;6196;48.398;11.736;2023-04-25T13:09:11;9.40;99.90
12268;DHT22;6196;48.398;11.736;2023-04-25T13:11:39;9.10;99.90
12268;DHT22;6196;48.398;11.736;2023-04-25T13:14:07;9.10;99.90
12268;DHT22;6196;48.398;11.736;2023-04-25T13:16:33;9.00;99.90
12268;DHT22;6196;48.398;11.736;2023-04-25T13:19:01;9.00;99.90
12268;DHT22;6196;48.398;11.736;2023-04-25T13:21:30;9.30;99.90
12268;DHT22;6196;48.398;11.736;2023-04-25T13:23:59;9.70;99.90
12268;DHT22;6196;48.398;11.736;2023-04-25T13:26:25;9.50;99.90
12268;DHT22;6196;48.398;11.736;2023-04-25T13:28:52;9.00;99.90
12268;DHT22;6196;48.398;11.736;2023-04-25T13:31:19;9.70;99.90
12268;DHT22;6196;48.398;11.736;2023-04-25T13:33:47;9.70;99.90
12268;DHT22;6196;48.398;11.736;2023-04-25T13:36:14;9.80;99.90
12268;DHT22;6196;48.398;11.736;2023-04-25T13:38:41;9.90;99.90
12268;DHT22;6196;48.398;11.736;2023-04-25T13:41:10;10.00;99.90
12268;DHT22;6196;48.398;11.736;2023-04-25T13:43:42;10.10;99.90
12268;DHT22;6196;48.398;11.736;2023-04-25T13:46:09;10.30;99.90
12268;DHT22;6196;48.398;11.736;2023-04-25T13:48:56;10.10;99.90
12268;DHT22;6196;48.398;11.736;2023-04-25T13:51:35;10.10;99.90
12268;DHT22;6196;48.398;11.736;2023-04-25T13:54:02;9.90;99.90
12268;DHT22;6196;48.398;11.736;2023-04-25T13:56:29;9.30;99.90
12268;DHT22;6196;48.398;11.736;2023-04-25T13:58:56;9.30;99.90
12268;DHT22;6196;48.398;11.736;2023-04-25T14:01:23;8.90;99.90
12268;DHT22;6196;48.398;11.736;2023-04-25T14:03:50;8.80;99.90
12268;DHT22;6196;48.398;11.736;2023-04-25T14:06:17;8.90;99.90
12268;DHT22;6196;48.398;11.736;2023-04-25T14:08:50;9.00;99.90
12268;DHT22;6196;48.398;11.736;2023-04-25T14:11:17;8.90;99.90
12268;DHT22;6196;48.398;11.736;2023-04-25T14:13:45;8.90;99.90
12268;DHT22;6196;48.398;11.736;2023-04-25T14:16:12;9.10;99.90
12268;DHT22;6196;48.398;11.736;2023-04-25T14:18:39;9.20;99.90
12268;DHT22;6196;48.398;11.736;2023-04-25T14:21:06;9.10;99.90
12268;DHT22;6196;48.398;11.736;2023-04-25T14:23:33;9.20;99.90
12268;DHT22;6196;48.398;11.736;2023-04-25T14:26:00;8.90;99.90
12268;DHT22;6196;48.398;11.736;2023-04-25T14:28:27;9.10;99.90
12268;DHT22;6196;48.398;11.736;2023-04-25T14:30:53;9.10;99.90
12268;DHT22;6196;48.398;11.736;2023-04-25T14:33:22;9.20;99.90
12268;DHT22;6196;48.398;11.736;2023-04-25T14:35:50;9.30;99.90
12268;DHT22;6196;48.398;11.736;2023-04-25T14:38:16;9.70;99.90
12268;DHT22;6196;48.398;11.736;2023-04-25T14:40:43;9.90;99.90
12268;DHT22;6196;48.398;11.736;2023-04-25T14:43:10;10.20;99.90
12268;DHT22;6196;48.398;11.736;2023-04-25T14:45:37;9.80;99.90
12268;DHT22;6196;48.398;11.736;2023-04-25T14:48:04;9.80;99.90
12268;DHT22;6196;48.398;11.736;2023-04-25T14:50:31;9.90;99.90
12268;DHT22;6196;48.398;11.736;2023-04-25T14:52:58;10.00;99.90
12268;DHT22;6196;48.398;11.736;2023-04-25T14:55:27;9.90;99.90
12268;DHT22;6196;48.398;11.736;2023-04-25T14:57:54;10.00;99.90
12268;DHT22;6196;48.398;11.736;2023-04-25T15:00:23;9.80;99.90
12268;DHT22;6196;48.398;11.736;2023-04-25T15:02:51;9.80;99.90
12268;DHT22;6196;48.398;11.736;2023-04-25T15:05:19;9.60;99.90
12268;DHT22;6196;48.398;11.736;2023-04-25T15:07:46;9.60;99.90
12268;DHT22;6196;48.398;11.736;2023-04-25T15:10:14;9.80;99.90
12268;DHT22;6196;48.398;11.736;2023-04-25T15:12:42;9.80;99.90
12268;DHT22;6196;48.398;11.736;2023-04-25T15:15:13;9.70;99.90
12268;DHT22;6196;48.398;11.736;2023-04-25T15:17:51;9.60;99.90
12268;DHT22;6196;48.398;11.736;2023-04-25T15:20:23;9.30;99.90
12268;DHT22;6196;48.398;11.736;2023-04-25T15:22:51;9.00;99.90
12268;DHT22;6196;48.398;11.736;2023-04-25T15:25:18;9.00;99.90
12268;DHT22;6196;48.398;11.736;2023-04-25T15:27:45;8.70;99.90
12268;DHT22;6196;48.398;11.736;2023-04-25T15:30:15;8.50;99.90
12268;DHT22;6196;48.398;11.736;2023-04-25T15:32:44;8.40;99.90
12268;DHT22;6196;48.398;11.736;2023-04-25T15:35:13;8.30;99.90
12268;DHT22;6196;48.398;11.736;2023-04-25T15:37:41;8.20;99.90
12268;DHT22;6196;48.398;11.736;2023-04-25T15:40:10;8.20;99.90
12268;DHT22;6196;48.398;11.736;2023-04-25T15:42:42;8.00;99.90
12268;DHT22;6196;48.398;11.736;2023-04-25T15:45:10;8.00;99.90
12268;DHT22;6196;48.398;11.736;2023-04-25T15:47:38;8.00;99.90
12268;DHT22;6196;48.398;11.736;2023-04-25T15:50:06;8.10;99.90
12268;DHT22;6196;48.398;11.736;2023-04-25T15:52:34;8.00;99.90
12268;DHT22;6196;48.398;11.736;2023-04-25T15:55:03;7.90;99.90
12268;DHT22;6196;48.398;11.736;2023-04-25T15:57:34;8.20;99.90
12268;DHT22;6196;48.398;11.736;2023-04-25T16:00:03;8.60;99.90
12268;DHT22;6196;48.398;11.736;2023-04-25T16:02:40;8.80;99.90
12268;DHT22;6196;48.398;11.736;2023-04-25T16:05:09;9.10;99.90
12268;DHT22;6196;48.398;11.736;2023-04-25T16:07:38;9.00;99.90